sensor_id;sensor_type;location;lat;lon;timestamp;pressure;altitude;pressure_sealevel;temperature;humidity
38912;BME280;28444;48.056;14.408;2023-04-24T00:01:37;96650.03;;;11.74;87.27
38912;BME280;28444;48.056;14.408;2023-04-24T00:04:26;96647.94;;;11.84;87.33
38912;BME280;28444;48.056;14.408;2023-04-24T00:07:13;96653.75;;;11.90;87.67
38912;BME280;28444;48.056;14.408;2023-04-24T00:10:01;96649.75;;;11.91;88.25
38912;BME280;28444;48.056;14.408;2023-04-24T00:12:48;96660.56;;;12.01;87.85
38912;BME280;28444;48.056;14.408;2023-04-24T00:15:35;96657.72;;;11.99;87.99
38912;BME280;28444;48.056;14.408;2023-04-24T00:18:22;96652.00;;;11.95;88.91
38912;BME280;28444;48.056;14.408;2023-04-24T00:21:09;96660.25;;;12.07;88.66
38912;BME280;28444;48.056;14.408;2023-04-24T00:23:56;96660.25;;;12.07;88.99
38912;BME280;28444;48.056;14.408;2023-04-24T00:26:43;96660.47;;;11.99;89.59
38912;BME280;28444;48.056;14.408;2023-04-24T00:29:30;96666.53;;;11.97;89.51
38912;BME280;28444;48.056;14.408;2023-04-24T00:32:17;96676.38;;;11.91;90.63
38912;BME280;28444;48.056;14.408;2023-04-24T00:35:05;96665.31;;;11.89;90.77
38912;BME280;28444;48.056;14.408;2023-04-24T00:37:52;96657.56;;;11.85;91.41
38912;BME280;28444;48.056;14.408;2023-04-24T00:40:39;96655.69;;;11.88;91.59
38912;BME280;28444;48.056;14.408;2023-04-24T00:43:26;96657.69;;;11.87;91.89
38912;BME280;28444;48.056;14.408;2023-04-24T00:46:14;96652.28;;;11.77;92.52
38912;BME280;28444;48.056;14.408;2023-04-24T00:49:01;96648.97;;;11.79;92.49
38912;BME280;28444;48.056;14.408;2023-04-24T00:51:49;96647.50;;;11.66;93.05
38912;BME280;28444;48.056;14.408;2023-04-24T00:54:37;96650.97;;;11.67;93.05
38912;BME280;28444;48.056;14.408;2023-04-24T00:57:25;96652.75;;;11.62;93.35
38912;BME280;28444;48.056;14.408;2023-04-24T01:00:13;96648.56;;;11.61;93.89
38912;BME280;28444;48.056;14.408;2023-04-24T01:03:04;96657.22;;;11.57;94.33
38912;BME280;28444;48.056;14.408;2023-04-24T01:05:54;96653.41;;;11.51;95.35
38912;BME280;28444;48.056;14.408;2023-04-24T01:08:41;96657.69;;;11.54;95.48
38912;BME280;28444;48.056;14.408;2023-04-24T01:11:29;96655.47;;;11.62;95.22
38912;BME280;28444;48.056;14.408;2023-04-24T01:14:16;96658.56;;;11.68;94.67
38912;BME280;28444;48.056;14.408;2023-04-24T01:17:03;96660.28;;;11.73;94.77
38912;BME280;28444;48.056;14.408;2023-04-24T01:19:50;96660.97;;;11.74;94.96
38912;BME280;28444;48.056;14.408;2023-04-24T01:22:40;96663.25;;;11.77;94.84
38912;BME280;28444;48.056;14.408;2023-04-24T01:25:28;96662.16;;;11.71;95.58
38912;BME280;28444;48.056;14.408;2023-04-24T01:28:15;96667.88;;;11.75;95.50
38912;BME280;28444;48.056;14.408;2023-04-24T01:31:02;96657.28;;;11.69;95.47
38912;BME280;28444;48.056;14.408;2023-04-24T01:33:50;96653.09;;;11.68;96.05
38912;BME280;28444;48.056;14.408;2023-04-24T01:36:37;96655.84;;;11.68;95.57
38912;BME280;28444;48.056;14.408;2023-04-24T01:39:26;96656.53;;;11.69;95.93
38912;BME280;28444;48.056;14.408;2023-04-24T01:42:16;96650.75;;;11.74;95.56
38912;BME280;28444;48.056;14.408;2023-04-24T01:45:04;96651.59;;;11.77;95.57
38912;BME280;28444;48.056;14.408;2023-04-24T01:47:52;96665.50;;;11.69;96.09
38912;BME280;28444;48.056;14.408;2023-04-24T01:50:39;96661.56;;;11.72;95.57
38912;BME280;28444;48.056;14.408;2023-04-24T01:53:26;96660.84;;;11.72;95.52
38912;BME280;28444;48.056;14.408;2023-04-24T01:56:13;96660.13;;;11.71;95.51
38912;BME280;28444;48.056;14.408;2023-04-24T01:59:02;96654.19;;;11.75;95.26
38912;BME280;28444;48.056;14.408;2023-04-24T02:01:49;96645.19;;;11.84;94.55
38912;BME280;28444;48.056;14.408;2023-04-24T02:04:36;96645.25;;;11.74;94.95
38912;BME280;28444;48.056;14.408;2023-04-24T02:07:23;96638.59;;;11.77;94.65
38912;BME280;28444;48.056;14.408;2023-04-24T02:10:11;96631.81;;;11.78;94.75
38912;BME280;28444;48.056;14.408;2023-04-24T02:12:58;96635.25;;;11.79;94.28
38912;BME280;28444;48.056;14.408;2023-04-24T02:15:46;96637.28;;;11.67;94.95
38912;BME280;28444;48.056;14.408;2023-04-24T02:18:33;96638.91;;;11.60;96.10
38912;BME280;28444;48.056;14.408;2023-04-24T02:21:20;96629.38;;;11.61;95.74
38912;BME280;28444;48.056;14.408;2023-04-24T02:24:07;96634.16;;;11.61;96.35
38912;BME280;28444;48.056;14.408;2023-04-24T02:26:54;96632.25;;;11.63;96.26
38912;BME280;28444;48.056;14.408;2023-04-24T02:29:41;96625.72;;;11.68;96.31
38912;BME280;28444;48.056;14.408;2023-04-24T02:32:28;96628.91;;;11.65;96.60
38912;BME280;28444;48.056;14.408;2023-04-24T02:35:17;96631.91;;;11.69;95.95
38912;BME280;28444;48.056;14.408;2023-04-24T02:38:05;96628.22;;;11.64;96.42
38912;BME280;28444;48.056;14.408;2023-04-24T02:40:52;96627.34;;;11.62;96.77
38912;BME280;28444;48.056;14.408;2023-04-24T02:43:39;96623.09;;;11.70;95.90
38912;BME280;28444;48.056;14.408;2023-04-24T02:46:26;96625.84;;;11.70;95.52
38912;BME280;28444;48.056;14.408;2023-04-24T02:49:13;96617.16;;;11.62;95.57
38912;BME280;28444;48.056;14.408;2023-04-24T02:52:00;96623.22;;;11.72;95.27
38912;BME280;28444;48.056;14.408;2023-04-24T02:54:47;96617.50;;;11.68;95.25
38912;BME280;28444;48.056;14.408;2023-04-24T02:57:34;96614.19;;;11.70;94.69
38912;BME280;28444;48.056;14.408;2023-04-24T03:00:21;96610.59;;;11.79;94.34
38912;BME280;28444;48.056;14.408;2023-04-24T03:03:08;96608.00;;;11.81;94.18
38912;BME280;28444;48.056;14.408;2023-04-24T03:05:56;96608.25;;;11.73;94.82
38912;BME280;28444;48.056;14.408;2023-04-24T03:08:43;96604.88;;;11.75;94.85
38912;BME280;28444;48.056;14.408;2023-04-24T03:11:30;96603.56;;;11.64;95.26
38912;BME280;28444;48.056;14.408;2023-04-24T03:14:17;96605.59;;;11.64;95.32
38912;BME280;28444;48.056;14.408;2023-04-24T03:17:04;96596.06;;;11.65;95.63
38912;BME280;28444;48.056;14.408;2023-04-24T03:19:51;96592.03;;;11.66;95.21
38912;BME280;28444;48.056;14.408;2023-04-24T03:22:38;96595.13;;;11.72;95.38
38912;BME280;28444;48.056;14.408;2023-04-24T03:25:25;96599.88;;;11.71;95.05
38912;BME280;28444;48.056;14.408;2023-04-24T03:28:12;96599.78;;;11.69;94.87
38912;BME280;28444;48.056;14.408;2023-04-24T03:30:59;96603.47;;;11.74;94.67
38912;BME280;28444;48.056;14.408;2023-04-24T03:33:46;96599.63;;;11.67;95.35
38912;BME280;28444;48.056;14.408;2023-04-24T03:36:33;96604.88;;;11.63;95.64
38912;BME280;28444;48.056;14.408;2023-04-24T03:39:20;96603.91;;;11.59;95.87
38912;BME280;28444;48.056;14.408;2023-04-24T03:42:07;96608.09;;;11.60;94.84
38912;BME280;28444;48.056;14.408;2023-04-24T03:44:55;96603.81;;;11.68;94.16
38912;BME280;28444;48.056;14.408;2023-04-24T03:47:42;96613.66;;;11.62;93.57
38912;BME280;28444;48.056;14.408;2023-04-24T03:50:29;96610.44;;;11.53;93.55
38912;BME280;28444;48.056;14.408;2023-04-24T03:53:16;96619.50;;;11.56;93.60
38912;BME280;28444;48.056;14.408;2023-04-24T03:56:03;96613.88;;;11.54;93.60
38912;BME280;28444;48.056;14.408;2023-04-24T03:58:50;96620.94;;;11.57;93.04
38912;BME280;28444;48.056;14.408;2023-04-24T04:01:37;96621.78;;;11.60;92.80
38912;BME280;28444;48.056;14.408;2023-04-24T04:04:24;96620.44;;;11.49;93.04
38912;BME280;28444;48.056;14.408;2023-04-24T04:07:12;96623.41;;;11.53;92.87
38912;BME280;28444;48.056;14.408;2023-04-24T04:09:59;96630.56;;;11.58;92.21
38912;BME280;28444;48.056;14.408;2023-04-24T04:12:46;96623.91;;;11.61;91.81
38912;BME280;28444;48.056;14.408;2023-04-24T04:15:33;96631.19;;;11.68;90.78
38912;BME280;28444;48.056;14.408;2023-04-24T04:18:20;96631.06;;;11.66;90.73
38912;BME280;28444;48.056;14.408;2023-04-24T04:21:07;96629.38;;;11.61;90.41
38912;BME280;28444;48.056;14.408;2023-04-24T04:23:54;96634.41;;;11.65;90.49
38912;BME280;28444;48.056;14.408;2023-04-24T04:26:41;96638.91;;;11.60;89.42
38912;BME280;28444;48.056;14.408;2023-04-24T04:29:32;96635.47;;;11.60;89.11
38912;BME280;28444;48.056;14.408;2023-04-24T04:32:21;96642.59;;;11.53;89.93
38912;BME280;28444;48.056;14.408;2023-04-24T04:35:08;96639.38;;;11.56;89.86
38912;BME280;28444;48.056;14.408;2023-04-24T04:37:56;96643.41;;;11.44;90.42
38912;BME280;28444;48.056;14.408;2023-04-24T04:40:45;96646.13;;;11.44;90.42
38912;BME280;28444;48.056;14.408;2023-04-24T04:43:32;96646.47;;;11.38;90.47
38912;BME280;28444;48.056;14.408;2023-04-24T04:46:20;96645.25;;;11.29;89.95
38912;BME280;28444;48.056;14.408;2023-04-24T04:49:08;96655.59;;;11.09;91.68
38912;BME280;28444;48.056;14.408;2023-04-24T04:51:55;96657.03;;;11.11;90.97
38912;BME280;28444;48.056;14.408;2023-04-24T04:54:42;96663.75;;;10.98;92.61
38912;BME280;28444;48.056;14.408;2023-04-24T04:57:29;96665.53;;;10.93;93.34
38912;BME280;28444;48.056;14.408;2023-04-24T05:00:17;96665.13;;;10.87;94.47
38912;BME280;28444;48.056;14.408;2023-04-24T05:03:04;96669.34;;;10.78;94.64
38912;BME280;28444;48.056;14.408;2023-04-24T05:06:06;96676.25;;;10.79;95.09
38912;BME280;28444;48.056;14.408;2023-04-24T05:08:53;96677.94;;;10.84;95.84
38912;BME280;28444;48.056;14.408;2023-04-24T05:11:44;96675.66;;;10.81;95.47
38912;BME280;28444;48.056;14.408;2023-04-24T05:14:31;96691.16;;;10.88;95.29
38912;BME280;28444;48.056;14.408;2023-04-24T05:17:18;96692.78;;;10.81;96.31
38912;BME280;28444;48.056;14.408;2023-04-24T05:20:06;96691.69;;;10.75;97.43
38912;BME280;28444;48.056;14.408;2023-04-24T05:22:53;96695.66;;;10.83;98.23
38912;BME280;28444;48.056;14.408;2023-04-24T05:25:40;96692.03;;;10.91;97.57
38912;BME280;28444;48.056;14.408;2023-04-24T05:28:28;96692.31;;;10.85;97.21
38912;BME280;28444;48.056;14.408;2023-04-24T05:31:15;96691.28;;;10.69;97.67
38912;BME280;28444;48.056;14.408;2023-04-24T05:34:02;96690.84;;;10.72;96.05
38912;BME280;28444;48.056;14.408;2023-04-24T05:36:49;96695.00;;;10.73;96.35
38912;BME280;28444;48.056;14.408;2023-04-24T05:39:37;96699.78;;;10.63;96.94
38912;BME280;28444;48.056;14.408;2023-04-24T05:42:24;96701.81;;;10.63;98.07
38912;BME280;28444;48.056;14.408;2023-04-24T05:45:11;96706.41;;;10.60;98.10
38912;BME280;28444;48.056;14.408;2023-04-24T05:48:03;96701.53;;;10.58;98.49
38912;BME280;28444;48.056;14.408;2023-04-24T05:50:50;96702.25;;;10.59;98.85
38912;BME280;28444;48.056;14.408;2023-04-24T05:53:39;96698.22;;;10.60;98.66
38912;BME280;28444;48.056;14.408;2023-04-24T05:56:26;96703.38;;;10.66;99.10
38912;BME280;28444;48.056;14.408;2023-04-24T05:59:13;96708.00;;;10.63;99.24
38912;BME280;28444;48.056;14.408;2023-04-24T06:02:00;96708.09;;;10.75;99.19
38912;BME280;28444;48.056;14.408;2023-04-24T06:04:47;96713.56;;;10.75;99.25
38912;BME280;28444;48.056;14.408;2023-04-24T06:07:34;96710.38;;;10.78;99.68
38912;BME280;28444;48.056;14.408;2023-04-24T06:10:21;96710.75;;;10.84;98.96
38912;BME280;28444;48.056;14.408;2023-04-24T06:13:08;96704.31;;;10.80;98.82
38912;BME280;28444;48.056;14.408;2023-04-24T06:15:55;96707.81;;;10.71;98.96
38912;BME280;28444;48.056;14.408;2023-04-24T06:18:42;96709.13;;;10.70;99.17
38912;BME280;28444;48.056;14.408;2023-04-24T06:21:29;96726.38;;;10.72;99.07
38912;BME280;28444;48.056;14.408;2023-04-24T06:24:16;96720.31;;;10.74;99.46
38912;BME280;28444;48.056;14.408;2023-04-24T06:27:03;96719.47;;;10.71;99.11
38912;BME280;28444;48.056;14.408;2023-04-24T06:29:50;96718.59;;;10.78;98.87
38912;BME280;28444;48.056;14.408;2023-04-24T06:32:41;96726.31;;;10.82;98.65
38912;BME280;28444;48.056;14.408;2023-04-24T06:35:28;96717.81;;;10.88;99.40
38912;BME280;28444;48.056;14.408;2023-04-24T06:38:15;96720.19;;;10.72;97.60
38912;BME280;28444;48.056;14.408;2023-04-24T06:41:03;96718.03;;;10.70;97.17
38912;BME280;28444;48.056;14.408;2023-04-24T06:43:51;96717.19;;;10.68;97.71
38912;BME280;28444;48.056;14.408;2023-04-24T06:46:38;96718.47;;;10.67;97.95
38912;BME280;28444;48.056;14.408;2023-04-24T06:49:27;96713.69;;;10.77;97.56
38912;BME280;28444;48.056;14.408;2023-04-24T06:52:14;96721.44;;;10.80;97.16
38912;BME280;28444;48.056;14.408;2023-04-24T06:55:05;96729.25;;;10.96;97.08
38912;BME280;28444;48.056;14.408;2023-04-24T06:57:52;96727.97;;;10.97;96.71
38912;BME280;28444;48.056;14.408;2023-04-24T07:00:39;96725.31;;;11.08;97.12
38912;BME280;28444;48.056;14.408;2023-04-24T07:03:26;96727.09;;;11.04;96.86
38912;BME280;28444;48.056;14.408;2023-04-24T07:06:13;96729.41;;;10.98;97.06
38912;BME280;28444;48.056;14.408;2023-04-24T07:09:01;96729.06;;;11.03;97.09
38912;BME280;28444;48.056;14.408;2023-04-24T07:11:48;96738.28;;;11.08;97.13
38912;BME280;28444;48.056;14.408;2023-04-24T07:14:35;96728.06;;;11.08;96.89
38912;BME280;28444;48.056;14.408;2023-04-24T07:17:22;96732.03;;;11.17;98.15
38912;BME280;28444;48.056;14.408;2023-04-24T07:20:10;96734.56;;;11.25;97.18
38912;BME280;28444;48.056;14.408;2023-04-24T07:22:57;96734.81;;;11.29;97.57
38912;BME280;28444;48.056;14.408;2023-04-24T07:25:44;96736.97;;;11.30;97.38
38912;BME280;28444;48.056;14.408;2023-04-24T07:28:31;96734.50;;;11.35;97.26
38912;BME280;28444;48.056;14.408;2023-04-24T07:31:18;96736.19;;;11.40;96.72
38912;BME280;28444;48.056;14.408;2023-04-24T07:34:05;96733.97;;;11.48;96.59
38912;BME280;28444;48.056;14.408;2023-04-24T07:36:52;96740.44;;;11.52;96.76
38912;BME280;28444;48.056;14.408;2023-04-24T07:39:39;96741.53;;;11.59;96.60
38912;BME280;28444;48.056;14.408;2023-04-24T07:42:27;96737.41;;;11.70;94.38
38912;BME280;28444;48.056;14.408;2023-04-24T07:45:15;96736.69;;;11.69;94.06
38912;BME280;28444;48.056;14.408;2023-04-24T07:48:02;96732.25;;;11.64;94.52
38912;BME280;28444;48.056;14.408;2023-04-24T07:50:49;96748.19;;;11.56;94.33
38912;BME280;28444;48.056;14.408;2023-04-24T07:53:36;96744.59;;;11.53;94.43
38912;BME280;28444;48.056;14.408;2023-04-24T07:56:23;96749.53;;;11.67;94.97
38912;BME280;28444;48.056;14.408;2023-04-24T07:59:12;96748.03;;;11.54;94.89
38912;BME280;28444;48.056;14.408;2023-04-24T08:01:59;96760.00;;;11.59;95.39
38912;BME280;28444;48.056;14.408;2023-04-24T08:04:47;96758.94;;;11.64;94.24
38912;BME280;28444;48.056;14.408;2023-04-24T08:07:35;96762.78;;;11.70;94.68
38912;BME280;28444;48.056;14.408;2023-04-24T08:10:23;96762.97;;;11.63;95.27
38912;BME280;28444;48.056;14.408;2023-04-24T08:13:10;96758.84;;;11.73;95.00
38912;BME280;28444;48.056;14.408;2023-04-24T08:15:58;96761.84;;;11.77;94.99
38912;BME280;28444;48.056;14.408;2023-04-24T08:18:45;96760.59;;;11.90;92.83
38912;BME280;28444;48.056;14.408;2023-04-24T08:21:32;96764.19;;;11.93;94.02
38912;BME280;28444;48.056;14.408;2023-04-24T08:24:19;96764.84;;;11.81;93.42
38912;BME280;28444;48.056;14.408;2023-04-24T08:27:06;96770.38;;;11.72;94.04
38912;BME280;28444;48.056;14.408;2023-04-24T08:29:53;96765.84;;;11.65;93.83
38912;BME280;28444;48.056;14.408;2023-04-24T08:32:40;96768.97;;;11.71;93.27
38912;BME280;28444;48.056;14.408;2023-04-24T08:35:28;96766.94;;;11.71;93.54
38912;BME280;28444;48.056;14.408;2023-04-24T08:38:15;96775.88;;;11.72;92.77
38912;BME280;28444;48.056;14.408;2023-04-24T08:41:03;96777.44;;;11.75;92.67
38912;BME280;28444;48.056;14.408;2023-04-24T08:43:51;96780.16;;;11.75;92.99
38912;BME280;28444;48.056;14.408;2023-04-24T08:46:39;96777.78;;;11.69;92.81
38912;BME280;28444;48.056;14.408;2023-04-24T08:49:28;96781.44;;;11.62;93.64
38912;BME280;28444;48.056;14.408;2023-04-24T08:52:15;96788.19;;;11.61;94.08
38912;BME280;28444;48.056;14.408;2023-04-24T08:55:02;96786.81;;;11.72;94.43
38912;BME280;28444;48.056;14.408;2023-04-24T08:57:51;96784.53;;;11.68;92.57
38912;BME280;28444;48.056;14.408;2023-04-24T09:00:39;96781.34;;;11.72;92.75
38912;BME280;28444;48.056;14.408;2023-04-24T09:03:27;96787.81;;;11.76;91.99
38912;BME280;28444;48.056;14.408;2023-04-24T09:06:17;96790.66;;;11.78;91.87
38912;BME280;28444;48.056;14.408;2023-04-24T09:09:05;96789.63;;;11.84;92.53
38912;BME280;28444;48.056;14.408;2023-04-24T09:11:52;96790.03;;;11.90;93.13
38912;BME280;28444;48.056;14.408;2023-04-24T09:14:42;96789.31;;;11.89;92.45
38912;BME280;28444;48.056;14.408;2023-04-24T09:17:33;96790.53;;;11.98;93.65
38912;BME280;28444;48.056;14.408;2023-04-24T09:20:20;96791.06;;;12.06;91.27
38912;BME280;28444;48.056;14.408;2023-04-24T09:23:07;96788.91;;;12.16;92.13
38912;BME280;28444;48.056;14.408;2023-04-24T09:25:58;96789.06;;;12.18;91.54
38912;BME280;28444;48.056;14.408;2023-04-24T09:28:46;96795.72;;;12.15;91.48
38912;BME280;28444;48.056;14.408;2023-04-24T09:31:34;96787.78;;;12.31;91.45
38912;BME280;28444;48.056;14.408;2023-04-24T09:34:26;96794.34;;;12.38;90.94
38912;BME280;28444;48.056;14.408;2023-04-24T09:37:29;96789.97;;;12.56;91.03
38912;BME280;28444;48.056;14.408;2023-04-24T09:40:18;96785.22;;;12.57;89.88
38912;BME280;28444;48.056;14.408;2023-04-24T09:43:10;96783.66;;;12.53;91.10
38912;BME280;28444;48.056;14.408;2023-04-24T09:45:58;96790.19;;;12.48;89.87
38912;BME280;28444;48.056;14.408;2023-04-24T09:48:46;96781.53;;;12.64;89.36
38912;BME280;28444;48.056;14.408;2023-04-24T09:51:35;96788.34;;;12.86;89.99
38912;BME280;28444;48.056;14.408;2023-04-24T09:54:23;96787.50;;;13.07;89.38
38912;BME280;28444;48.056;14.408;2023-04-24T09:57:11;96778.28;;;13.14;89.18
38912;BME280;28444;48.056;14.408;2023-04-24T09:59:58;96785.09;;;13.25;88.51
38912;BME280;28444;48.056;14.408;2023-04-24T10:02:49;96785.66;;;13.47;89.07
38912;BME280;28444;48.056;14.408;2023-04-24T10:05:37;96779.44;;;13.46;86.65
38912;BME280;28444;48.056;14.408;2023-04-24T10:08:25;96783.06;;;13.75;87.24
38912;BME280;28444;48.056;14.408;2023-04-24T10:11:13;96774.16;;;13.62;87.10
38912;BME280;28444;48.056;14.408;2023-04-24T10:14:01;96777.72;;;13.77;87.04
38912;BME280;28444;48.056;14.408;2023-04-24T10:16:49;96771.09;;;13.82;86.07
38912;BME280;28444;48.056;14.408;2023-04-24T10:19:37;96777.94;;;13.81;85.13
38912;BME280;28444;48.056;14.408;2023-04-24T10:22:24;96766.16;;;13.92;85.89
38912;BME280;28444;48.056;14.408;2023-04-24T10:25:11;96768.88;;;14.04;86.18
38912;BME280;28444;48.056;14.408;2023-04-24T10:28:00;96763.28;;;14.02;83.82
38912;BME280;28444;48.056;14.408;2023-04-24T10:30:48;96759.97;;;13.91;83.51
38912;BME280;28444;48.056;14.408;2023-04-24T10:33:35;96760.00;;;13.80;83.77
38912;BME280;28444;48.056;14.408;2023-04-24T10:36:23;96758.78;;;13.83;82.70
38912;BME280;28444;48.056;14.408;2023-04-24T10:39:14;96762.72;;;13.91;84.63
38912;BME280;28444;48.056;14.408;2023-04-24T10:42:14;96757.09;;;13.89;80.52
38912;BME280;28444;48.056;14.408;2023-04-24T10:45:05;96764.34;;;13.96;80.73
38912;BME280;28444;48.056;14.408;2023-04-24T10:48:04;96760.25;;;14.09;82.48
38912;BME280;28444;48.056;14.408;2023-04-24T10:50:53;96761.72;;;14.24;78.12
38912;BME280;28444;48.056;14.408;2023-04-24T10:53:40;96754.47;;;13.91;76.24
38912;BME280;28444;48.056;14.408;2023-04-24T10:56:27;96738.13;;;14.07;77.89
38912;BME280;28444;48.056;14.408;2023-04-24T10:59:24;96746.31;;;13.93;79.97
38912;BME280;28444;48.056;14.408;2023-04-24T11:02:14;96739.59;;;14.22;76.14
38912;BME280;28444;48.056;14.408;2023-04-24T11:05:06;96740.84;;;14.33;75.66
38912;BME280;28444;48.056;14.408;2023-04-24T11:08:15;96736.78;;;14.34;75.74
38912;BME280;28444;48.056;14.408;2023-04-24T11:11:11;96732.63;;;14.47;75.46
38912;BME280;28444;48.056;14.408;2023-04-24T11:14:03;96726.44;;;14.46;74.47
38912;BME280;28444;48.056;14.408;2023-04-24T11:16:53;96730.63;;;14.21;75.34
38912;BME280;28444;48.056;14.408;2023-04-24T11:19:50;96728.28;;;14.55;74.35
38912;BME280;28444;48.056;14.408;2023-04-24T11:22:40;96735.19;;;14.42;72.39
38912;BME280;28444;48.056;14.408;2023-04-24T11:25:30;96736.78;;;14.34;74.01
38912;BME280;28444;48.056;14.408;2023-04-24T11:28:18;96735.63;;;14.51;74.06
38912;BME280;28444;48.056;14.408;2023-04-24T11:31:40;96730.22;;;14.53;71.71
38912;BME280;28444;48.056;14.408;2023-04-24T11:34:28;96732.38;;;14.54;72.60
38912;BME280;28444;48.056;14.408;2023-04-24T11:37:15;96738.63;;;14.43;72.61
38912;BME280;28444;48.056;14.408;2023-04-24T11:40:07;96735.75;;;14.53;74.43
38912;BME280;28444;48.056;14.408;2023-04-24T11:42:54;96726.97;;;14.70;73.18
38912;BME280;28444;48.056;14.408;2023-04-24T11:45:49;96725.88;;;14.75;75.36
38912;BME280;28444;48.056;14.408;2023-04-24T11:48:36;96724.16;;;14.82;72.05
38912;BME280;28444;48.056;14.408;2023-04-24T11:51:27;96725.44;;;14.81;71.44
38912;BME280;28444;48.056;14.408;2023-04-24T11:54:22;96727.72;;;14.71;71.50
38912;BME280;28444;48.056;14.408;2023-04-24T11:57:09;96724.72;;;14.66;72.45
38912;BME280;28444;48.056;14.408;2023-04-24T11:59:56;96728.50;;;14.73;69.82
38912;BME280;28444;48.056;14.408;2023-04-24T12:02:43;96723.09;;;14.61;70.53
38912;BME280;28444;48.056;14.408;2023-04-24T12:05:30;96725.22;;;14.63;70.16
38912;BME280;28444;48.056;14.408;2023-04-24T12:08:28;96722.56;;;14.51;69.68
38912;BME280;28444;48.056;14.408;2023-04-24T12:11:16;96726.47;;;14.60;72.05
38912;BME280;28444;48.056;14.408;2023-04-24T12:14:13;96728.31;;;14.69;71.04
38912;BME280;28444;48.056;14.408;2023-04-24T12:17:02;96717.69;;;14.77;72.70
38912;BME280;28444;48.056;14.408;2023-04-24T12:19:49;96711.50;;;15.04;70.67
38912;BME280;28444;48.056;14.408;2023-04-24T12:22:51;96712.69;;;15.15;72.37
38912;BME280;28444;48.056;14.408;2023-04-24T12:25:41;96711.56;;;15.06;69.77
38912;BME280;28444;48.056;14.408;2023-04-24T12:28:38;96724.34;;;14.72;70.22
38912;BME280;28444;48.056;14.408;2023-04-24T12:31:25;96737.25;;;14.56;70.76
38912;BME280;28444;48.056;14.408;2023-04-24T12:34:19;96772.34;;;13.67;72.38
38912;BME280;28444;48.056;14.408;2023-04-24T12:37:11;96814.34;;;11.74;78.20
38912;BME280;28444;48.056;14.408;2023-04-24T12:40:09;96831.22;;;10.07;89.54
38912;BME280;28444;48.056;14.408;2023-04-24T12:42:56;96829.88;;;9.40;91.47
38912;BME280;28444;48.056;14.408;2023-04-24T12:45:44;96838.44;;;8.80;93.64
38912;BME280;28444;48.056;14.408;2023-04-24T12:48:34;96853.81;;;8.85;96.23
38912;BME280;28444;48.056;14.408;2023-04-24T12:51:21;96832.22;;;8.70;95.99
38912;BME280;28444;48.056;14.408;2023-04-24T12:54:07;96845.31;;;8.81;96.84
38912;BME280;28444;48.056;14.408;2023-04-24T12:56:54;96839.75;;;8.89;96.55
38912;BME280;28444;48.056;14.408;2023-04-24T12:59:43;96837.66;;;8.97;97.71
38912;BME280;28444;48.056;14.408;2023-04-24T13:02:30;96838.44;;;9.17;97.10
38912;BME280;28444;48.056;14.408;2023-04-24T13:05:18;96845.53;;;9.39;96.80
38912;BME280;28444;48.056;14.408;2023-04-24T13:08:05;96847.75;;;9.70;94.91
38912;BME280;28444;48.056;14.408;2023-04-24T13:10:52;96859.41;;;9.90;93.89
38912;BME280;28444;48.056;14.408;2023-04-24T13:13:40;96861.13;;;9.95;94.48
38912;BME280;28444;48.056;14.408;2023-04-24T13:16:28;96846.72;;;10.24;95.91
38912;BME280;28444;48.056;14.408;2023-04-24T13:19:15;96838.56;;;10.43;95.43
38912;BME280;28444;48.056;14.408;2023-04-24T13:22:02;96837.50;;;10.68;94.88
38912;BME280;28444;48.056;14.408;2023-04-24T13:24:49;96821.88;;;10.90;94.55
38912;BME280;28444;48.056;14.408;2023-04-24T13:27:38;96824.25;;;11.05;92.35
38912;BME280;28444;48.056;14.408;2023-04-24T13:30:26;96824.38;;;11.38;93.71
38912;BME280;28444;48.056;14.408;2023-04-24T13:33:13;96818.13;;;11.69;92.41
38912;BME280;28444;48.056;14.408;2023-04-24T13:36:00;96814.00;;;12.01;91.51
38912;BME280;28444;48.056;14.408;2023-04-24T13:38:47;96811.72;;;12.31;91.44
38912;BME280;28444;48.056;14.408;2023-04-24T13:41:33;96803.53;;;12.42;88.29
38912;BME280;28444;48.056;14.408;2023-04-24T13:44:22;96807.63;;;12.65;88.98
38912;BME280;28444;48.056;14.408;2023-04-24T13:47:10;96802.25;;;12.55;87.35
38912;BME280;28444;48.056;14.408;2023-04-24T13:49:57;96810.84;;;12.61;87.40
38912;BME280;28444;48.056;14.408;2023-04-24T13:52:43;96798.59;;;12.86;86.12
38912;BME280;28444;48.056;14.408;2023-04-24T13:55:31;96798.47;;;12.95;83.32
38912;BME280;28444;48.056;14.408;2023-04-24T13:58:17;96793.69;;;13.08;83.34
38912;BME280;28444;48.056;14.408;2023-04-24T14:01:04;96791.44;;;13.04;79.98
38912;BME280;28444;48.056;14.408;2023-04-24T14:03:52;96791.53;;;13.06;80.83
38912;BME280;28444;48.056;14.408;2023-04-24T14:06:39;96789.63;;;13.09;79.60
38912;BME280;28444;48.056;14.408;2023-04-24T14:09:26;96786.28;;;13.10;79.60
38912;BME280;28444;48.056;14.408;2023-04-24T14:12:13;96788.81;;;13.30;78.49
38912;BME280;28444;48.056;14.408;2023-04-24T14:15:04;96783.56;;;12.98;78.28
38912;BME280;28444;48.056;14.408;2023-04-24T14:17:51;96792.25;;;12.95;79.37
38912;BME280;28444;48.056;14.408;2023-04-24T14:20:38;96782.09;;;12.62;79.78
38912;BME280;28444;48.056;14.408;2023-04-24T14:23:25;96778.16;;;12.53;81.21
38912;BME280;28444;48.056;14.408;2023-04-24T14:26:12;96779.81;;;12.35;82.53
38912;BME280;28444;48.056;14.408;2023-04-24T14:28:59;96784.34;;;12.42;85.95
38912;BME280;28444;48.056;14.408;2023-04-24T14:32:00;96796.53;;;12.51;84.38
38912;BME280;28444;48.056;14.408;2023-04-24T14:34:47;96789.00;;;12.40;88.60
38912;BME280;28444;48.056;14.408;2023-04-24T14:37:34;96784.00;;;12.48;87.43
38912;BME280;28444;48.056;14.408;2023-04-24T14:40:22;96781.97;;;12.48;86.10